createdAt,value
2023-02-17T00:00:58.091Z,91.83
2023-02-17T00:01:58.088Z,91.93
2023-02-17T00:02:58.076Z,91.93
2023-02-17T00:03:58.238Z,92.03
2023-02-17T00:04:58.083Z,91.93
2023-02-17T00:05:58.051Z,91.93
2023-02-17T00:06:58.028Z,91.83
2023-02-17T00:07:58.027Z,91.83
2023-02-17T00:08:58.004Z,91.78
2023-02-17T00:09:57.996Z,91.93
2023-02-17T00:10:58.030Z,91.89
2023-02-17T00:11:58.088Z,91.89
2023-02-17T00:12:57.992Z,91.99
2023-02-17T00:13:57.988Z,91.89
2023-02-17T00:14:57.954Z,91.99
2023-02-17T00:15:58.017Z,91.89
2023-02-17T00:16:57.931Z,91.99
2023-02-17T00:17:57.906Z,91.99
2023-02-17T00:18:57.890Z,91.99
2023-02-17T00:19:57.885Z,91.99
2023-02-17T00:20:57.879Z,91.99
2023-02-17T00:21:57.858Z,91.99
2023-02-17T00:22:57.892Z,91.99
2023-02-17T00:23:57.865Z,92.10
2023-02-17T00:24:57.870Z,92.30
2023-02-17T00:25:57.835Z,92.41
2023-02-17T00:26:57.839Z,92.51
2023-02-17T00:27:57.826Z,92.61
2023-02-17T00:28:57.826Z,92.72
2023-02-17T00:29:57.815Z,92.68
2023-02-17T00:30:57.896Z,92.68
2023-02-17T00:31:57.929Z,92.78
2023-02-17T00:32:57.761Z,92.78
2023-02-17T00:33:57.770Z,92.68
2023-02-17T00:34:57.771Z,92.78
2023-02-17T00:35:57.736Z,92.68
2023-02-17T00:36:57.722Z,92.68
2023-02-17T00:37:57.727Z,92.57
2023-02-17T00:38:57.702Z,92.47
2023-02-17T00:39:57.686Z,92.47
2023-02-17T00:40:57.680Z,92.36
2023-02-17T00:41:57.701Z,92.36
2023-02-17T00:42:57.671Z,91.91
2023-02-17T00:43:57.686Z,91.60
2023-02-17T00:44:57.629Z,91.49
2023-02-17T00:45:57.639Z,91.49
2023-02-17T00:46:57.609Z,91.49
2023-02-17T00:47:57.600Z,91.53
2023-02-17T00:48:57.652Z,91.53
2023-02-17T00:49:57.595Z,91.43
2023-02-17T00:50:57.600Z,91.02
2023-02-17T00:51:57.592Z,90.91
2023-02-17T00:52:57.569Z,90.91
2023-02-17T00:53:57.567Z,91.02
2023-02-17T00:54:57.593Z,91.02
2023-02-17T00:55:57.543Z,91.02
2023-02-17T00:56:57.519Z,91.02
2023-02-17T00:57:57.509Z,91.12
2023-02-17T00:58:57.505Z,91.12
2023-02-17T00:59:57.478Z,91.22
2023-02-17T01:00:57.501Z,91.33
2023-02-17T01:01:57.501Z,91.43
2023-02-17T01:02:57.464Z,91.53
2023-02-17T01:03:57.453Z,91.53
2023-02-17T01:04:57.498Z,91.53
2023-02-17T01:05:57.439Z,91.53
2023-02-17T01:06:57.452Z,91.53
2023-02-17T01:07:57.435Z,91.64
2023-02-17T01:08:57.415Z,91.74
2023-02-17T01:09:57.410Z,91.85
2023-02-17T01:10:57.399Z,91.95
2023-02-17T01:11:57.402Z,92.16
2023-02-17T01:12:57.387Z,92.26
2023-02-17T01:13:57.386Z,92.26
2023-02-17T01:14:57.340Z,92.36
2023-02-17T01:15:57.407Z,92.36
2023-02-17T01:16:57.339Z,92.47
2023-02-17T01:17:57.314Z,92.47
2023-02-17T01:18:57.318Z,92.57
2023-02-17T01:19:57.312Z,92.68
2023-02-17T01:20:57.269Z,92.68
2023-02-17T01:21:57.258Z,92.78
2023-02-17T01:22:57.262Z,92.78
2023-02-17T01:23:57.252Z,92.78
2023-02-17T01:24:57.263Z,92.78
2023-02-17T01:25:57.243Z,92.68
2023-02-17T01:26:57.214Z,92.63
2023-02-17T01:27:57.198Z,92.63
2023-02-17T01:28:57.214Z,92.63
2023-02-17T01:29:57.236Z,92.63
2023-02-17T01:30:57.257Z,92.63
2023-02-17T01:31:57.258Z,92.63
2023-02-17T01:32:57.167Z,92.53
2023-02-17T01:33:57.155Z,92.63
2023-02-17T01:34:57.147Z,92.63
2023-02-17T01:35:57.146Z,92.63
2023-02-17T01:36:57.157Z,92.53
2023-02-17T01:37:57.106Z,92.38
2023-02-17T01:38:57.100Z,92.38
2023-02-17T01:39:57.077Z,92.28
2023-02-17T01:40:57.092Z,92.28
2023-02-17T01:41:57.064Z,92.28
2023-02-17T01:42:57.109Z,92.28
2023-02-17T01:43:57.039Z,92.28
2023-02-17T01:44:57.036Z,92.28
2023-02-17T01:45:57.020Z,92.28
2023-02-17T01:46:57.093Z,92.18
2023-02-17T01:47:57.012Z,92.18
2023-02-17T01:48:57.026Z,92.18
2023-02-17T01:49:56.988Z,92.18
2023-02-17T01:50:56.976Z,92.18
2023-02-17T01:51:56.968Z,92.28
2023-02-17T01:52:56.964Z,92.28
2023-02-17T01:53:56.940Z,92.28
2023-02-17T01:54:56.979Z,92.38
2023-02-17T01:55:56.952Z,92.59
2023-02-17T01:56:56.927Z,92.80
2023-02-17T01:57:56.912Z,92.86
2023-02-17T01:58:56.894Z,92.86
2023-02-17T01:59:56.899Z,92.97
2023-02-17T02:00:56.905Z,92.97
2023-02-17T02:01:57.071Z,92.97
2023-02-17T02:02:56.953Z,92.97
2023-02-17T02:03:56.841Z,92.86
2023-02-17T02:04:56.825Z,92.76
2023-02-17T02:05:56.814Z,92.76
2023-02-17T02:06:56.834Z,92.66
2023-02-17T02:07:56.801Z,92.45
2023-02-17T02:08:56.837Z,92.35
2023-02-17T02:09:56.791Z,92.24
2023-02-17T02:10:56.787Z,92.14
2023-02-17T02:11:56.774Z,92.14
2023-02-17T02:12:56.758Z,92.24
2023-02-17T02:13:56.744Z,92.35
2023-02-17T02:14:56.773Z,92.35
2023-02-17T02:15:56.739Z,92.35
2023-02-17T02:16:56.703Z,92.35
2023-02-17T02:17:56.699Z,92.55
2023-02-17T02:18:56.697Z,92.66
2023-02-17T02:19:56.674Z,92.86
2023-02-17T02:20:56.717Z,93.07
2023-02-17T02:21:56.668Z,93.18
2023-02-17T02:22:56.660Z,93.49
2023-02-17T02:23:56.645Z,93.59
2023-02-17T02:24:56.640Z,93.70
2023-02-17T02:25:56.622Z,93.80
2023-02-17T02:26:56.633Z,93.90
2023-02-17T02:27:56.610Z,94.01
2023-02-17T02:28:56.582Z,94.01
2023-02-17T02:29:56.595Z,94.11
2023-02-17T02:30:56.639Z,94.21
2023-02-17T02:31:56.648Z,94.32
2023-02-17T02:32:56.592Z,94.42
2023-02-17T02:33:56.549Z,94.53
2023-02-17T02:34:56.548Z,94.73
2023-02-17T02:35:56.537Z,94.94
2023-02-17T02:36:56.516Z,95.04
2023-02-17T02:37:56.519Z,95.04
2023-02-17T02:38:56.981Z,94.94
2023-02-17T02:39:56.510Z,94.84
2023-02-17T02:40:56.476Z,94.73
2023-02-17T02:41:56.476Z,94.63
2023-02-17T02:42:56.459Z,94.63
2023-02-17T02:43:56.442Z,94.53
2023-02-17T02:44:56.671Z,94.58
2023-02-17T02:45:56.455Z,94.68
2023-02-17T02:46:56.404Z,94.68
2023-02-17T02:47:56.408Z,94.79
2023-02-17T02:48:56.392Z,94.89
2023-02-17T02:49:56.398Z,95.20
2023-02-17T02:50:56.404Z,95.31
2023-02-17T02:51:56.386Z,95.41
2023-02-17T02:52:56.346Z,95.51
2023-02-17T02:53:56.343Z,95.51
2023-02-17T02:54:56.335Z,95.41
2023-02-17T02:55:56.346Z,95.51
2023-02-17T02:56:56.372Z,95.62
2023-02-17T02:57:56.320Z,95.72
2023-02-17T02:58:56.297Z,95.78
2023-02-17T02:59:56.296Z,95.89
2023-02-17T03:00:56.305Z,95.89
2023-02-17T03:01:56.270Z,95.89
2023-02-17T03:02:56.310Z,95.99
2023-02-17T03:03:56.290Z,96.30
2023-02-17T03:04:56.241Z,96.51
2023-02-17T03:05:56.222Z,96.67
2023-02-17T03:06:56.210Z,96.67
2023-02-17T03:07:56.214Z,96.67
2023-02-17T03:08:56.212Z,96.88
2023-02-17T03:09:56.179Z,96.78
2023-02-17T03:10:56.160Z,96.01
2023-02-17T03:11:56.159Z,96.21
2023-02-17T03:12:56.164Z,96.42
2023-02-17T03:13:56.196Z,96.01
2023-02-17T03:14:56.137Z,95.96
2023-02-17T03:15:56.135Z,95.96
2023-02-17T03:16:56.133Z,95.75
2023-02-17T03:17:56.122Z,95.54
2023-02-17T03:18:56.095Z,95.24
2023-02-17T03:19:56.106Z,95.14
2023-02-17T03:20:56.073Z,95.14
2023-02-17T03:21:56.072Z,94.98
2023-02-17T03:22:56.049Z,94.98
2023-02-17T03:23:56.033Z,94.89
2023-02-17T03:24:56.077Z,94.89
2023-02-17T03:25:56.028Z,94.89
2023-02-17T03:26:56.021Z,94.98
2023-02-17T03:27:56.024Z,94.98
2023-02-17T03:28:55.982Z,95.09
2023-02-17T03:29:56.048Z,94.98
2023-02-17T03:30:56.000Z,95.09
2023-02-17T03:31:56.125Z,94.78
2023-02-17T03:32:55.944Z,94.68
2023-02-17T03:33:55.943Z,94.78
2023-02-17T03:34:55.935Z,94.68
2023-02-17T03:35:55.921Z,94.68
2023-02-17T03:36:55.938Z,94.57
2023-02-17T03:37:55.903Z,94.57
2023-02-17T03:38:55.896Z,94.57
2023-02-17T03:39:55.884Z,94.68
2023-02-17T03:40:55.878Z,94.78
2023-02-17T03:41:55.864Z,94.78
2023-02-17T03:42:55.914Z,94.78
2023-02-17T03:43:55.906Z,94.89
2023-02-17T03:44:55.817Z,94.89
2023-02-17T03:45:55.838Z,94.98
2023-02-17T03:46:55.797Z,94.89
2023-02-17T03:47:55.803Z,94.89
2023-02-17T03:48:55.848Z,94.89
2023-02-17T03:49:55.778Z,94.89
2023-02-17T03:50:55.766Z,94.89
2023-02-17T03:51:55.761Z,94.78
2023-02-17T03:52:55.748Z,94.78
2023-02-17T03:53:55.740Z,94.78
2023-02-17T03:54:55.797Z,94.68
2023-02-17T03:55:55.718Z,94.68
2023-02-17T03:56:55.697Z,94.57
2023-02-17T03:57:55.701Z,94.57
2023-02-17T03:58:55.682Z,94.47
2023-02-17T03:59:55.675Z,94.57
2023-02-17T04:00:55.694Z,94.68
2023-02-17T04:01:55.661Z,94.78
2023-02-17T04:02:55.647Z,94.78
2023-02-17T04:03:55.679Z,94.84
2023-02-17T04:04:55.622Z,94.94
2023-02-17T04:05:55.626Z,94.73
2023-02-17T04:06:55.636Z,94.84
2023-02-17T04:07:55.606Z,94.84
2023-02-17T04:08:55.567Z,94.73
2023-02-17T04:09:55.565Z,95.15
2023-02-17T04:10:55.563Z,95.15
2023-02-17T04:11:55.553Z,95.04
2023-02-17T04:12:55.584Z,94.94
2023-02-17T04:13:55.539Z,94.94
2023-02-17T04:14:55.518Z,94.84
2023-02-17T04:15:55.609Z,94.73
2023-02-17T04:16:55.506Z,94.63
2023-02-17T04:17:55.497Z,94.63
2023-02-17T04:18:55.527Z,94.63
2023-02-17T04:19:55.487Z,94.63
2023-02-17T04:20:55.487Z,94.63
2023-02-17T04:21:55.469Z,94.84
2023-02-17T04:22:55.452Z,94.94
2023-02-17T04:23:55.439Z,94.94
2023-02-17T04:24:55.440Z,94.94
2023-02-17T04:25:55.422Z,94.94
2023-02-17T04:26:55.405Z,94.94
2023-02-17T04:27:55.378Z,94.94
2023-02-17T04:28:55.390Z,95.04
2023-02-17T04:29:55.431Z,95.36
2023-02-17T04:30:55.499Z,95.31
2023-02-17T04:31:55.530Z,95.42
2023-02-17T04:32:55.350Z,95.42
2023-02-17T04:33:55.341Z,95.73
2023-02-17T04:34:55.315Z,95.83
2023-02-17T04:35:55.305Z,95.62
2023-02-17T04:36:55.329Z,95.83
2023-02-17T04:37:55.291Z,95.73
2023-02-17T04:38:55.271Z,95.42
2023-02-17T04:39:55.255Z,95.42
2023-02-17T04:40:55.268Z,95.31
2023-02-17T04:41:55.252Z,95.21
2023-02-17T04:42:55.284Z,95.31
2023-02-17T04:43:55.234Z,95.00
2023-02-17T04:44:55.220Z,94.48
2023-02-17T04:45:55.286Z,95.00
2023-02-17T04:46:55.228Z,95.42
2023-02-17T04:47:55.181Z,95.48
2023-02-17T04:48:55.200Z,95.57
2023-02-17T04:49:55.154Z,95.37
2023-02-17T04:50:55.141Z,95.57
2023-02-17T04:51:55.128Z,95.78
2023-02-17T04:52:55.135Z,95.68
2023-02-17T04:53:55.124Z,95.57
2023-02-17T04:54:55.158Z,95.57
2023-02-17T04:55:55.107Z,95.57
2023-02-17T04:56:55.098Z,95.57
2023-02-17T04:57:55.082Z,95.78
2023-02-17T04:58:55.083Z,95.78
2023-02-17T04:59:55.089Z,95.57
2023-02-17T05:00:55.078Z,95.68
2023-02-17T05:01:55.040Z,95.78
2023-02-17T05:02:55.043Z,95.89
2023-02-17T05:03:55.030Z,96.09
2023-02-17T05:04:55.056Z,96.41
2023-02-17T05:05:54.986Z,96.51
2023-02-17T05:06:55.013Z,96.51
2023-02-17T05:07:54.963Z,96.72
2023-02-17T05:08:54.959Z,96.61
2023-02-17T05:09:54.942Z,96.72
2023-02-17T05:10:54.945Z,96.77
2023-02-17T05:11:54.921Z,97.08
2023-02-17T05:12:54.963Z,97.39
2023-02-17T05:13:54.916Z,97.39
2023-02-17T05:14:54.904Z,97.39
2023-02-17T05:15:54.946Z,97.39
2023-02-17T05:16:54.893Z,97.50
2023-02-17T05:17:54.878Z,97.60
2023-02-17T05:18:54.908Z,97.71
2023-02-17T05:19:54.864Z,97.71
2023-02-17T05:20:54.834Z,97.71
2023-02-17T05:21:54.828Z,97.60
2023-02-17T05:22:54.823Z,97.71
2023-02-17T05:23:54.796Z,97.81
2023-02-17T05:24:54.821Z,97.81
2023-02-17T05:25:54.804Z,97.81
2023-02-17T05:26:54.790Z,97.81
2023-02-17T05:27:54.768Z,97.71
2023-02-17T05:28:54.781Z,97.60
2023-02-17T05:29:54.804Z,97.60
2023-02-17T05:30:54.799Z,97.39
2023-02-17T05:31:54.788Z,97.50
2023-02-17T05:32:54.710Z,97.50
2023-02-17T05:33:54.691Z,97.60
2023-02-17T05:34:54.697Z,97.50
2023-02-17T05:35:54.672Z,97.50
2023-02-17T05:36:54.704Z,97.50
2023-02-17T05:37:54.676Z,97.39
2023-02-17T05:38:54.665Z,97.50
2023-02-17T05:39:54.657Z,97.81
2023-02-17T05:40:54.652Z,97.81
2023-02-17T05:41:56.635Z,97.81
2023-02-17T05:42:54.675Z,97.60
2023-02-17T05:43:54.616Z,97.71
2023-02-17T05:44:54.597Z,97.81
2023-02-17T05:45:54.570Z,97.81
2023-02-17T05:46:54.614Z,97.81
2023-02-17T05:47:54.560Z,97.91
2023-02-17T05:48:54.948Z,97.91
2023-02-17T05:49:54.545Z,98.11
2023-02-17T05:50:54.648Z,98.18
2023-02-17T05:51:54.524Z,98.53
2023-02-17T05:52:54.527Z,98.58
2023-02-17T05:53:54.601Z,98.58
2023-02-17T05:54:54.532Z,98.69
2023-02-17T05:55:54.490Z,98.79
2023-02-17T05:56:54.525Z,98.79
2023-02-17T05:57:54.465Z,98.69
2023-02-17T05:58:54.470Z,98.49
2023-02-17T05:59:54.468Z,98.38
2023-02-17T06:00:54.442Z,98.28
2023-02-17T06:01:54.418Z,98.07
2023-02-17T06:02:54.476Z,98.18
2023-02-17T06:03:54.394Z,98.38
2023-02-17T06:04:54.564Z,98.23
2023-02-17T06:05:54.419Z,98.23
2023-02-17T06:06:54.377Z,98.23
2023-02-17T06:07:54.362Z,98.02
2023-02-17T06:08:54.344Z,98.23
2023-02-17T06:09:54.339Z,98.23
2023-02-17T06:10:54.332Z,98.23
2023-02-17T06:11:54.360Z,98.23
2023-02-17T06:12:54.312Z,98.23
2023-02-17T06:13:54.290Z,98.33
2023-02-17T06:14:54.303Z,98.44
2023-02-17T06:15:54.371Z,98.33
2023-02-17T06:16:54.277Z,98.44
2023-02-17T06:17:54.307Z,98.44
2023-02-17T06:18:54.270Z,98.44
2023-02-17T06:19:54.251Z,98.44
2023-02-17T06:20:54.264Z,98.65
2023-02-17T06:21:54.244Z,98.44
2023-02-17T06:22:54.256Z,98.54
2023-02-17T06:23:54.272Z,98.23
2023-02-17T06:24:54.225Z,98.44
2023-02-17T06:25:54.188Z,98.54
2023-02-17T06:26:54.165Z,98.44
2023-02-17T06:27:54.145Z,98.44
2023-02-17T06:28:54.152Z,98.33
2023-02-17T06:29:54.251Z,98.54
2023-02-17T06:30:54.146Z,98.44
2023-02-17T06:31:54.240Z,98.33
2023-02-17T06:32:54.115Z,98.29
2023-02-17T06:33:54.100Z,98.29
2023-02-17T06:34:54.093Z,98.29
2023-02-17T06:35:54.106Z,98.19
2023-02-17T06:36:54.056Z,98.19
2023-02-17T06:37:54.075Z,98.19
2023-02-17T06:38:54.032Z,97.88
2023-02-17T06:39:54.028Z,97.77
2023-02-17T06:40:54.021Z,97.88
2023-02-17T06:41:54.049Z,97.67
2023-02-17T06:42:54.002Z,97.77
2023-02-17T06:43:53.989Z,97.88
2023-02-17T06:44:53.988Z,97.88
2023-02-17T06:45:53.990Z,97.77
2023-02-17T06:46:53.973Z,97.67
2023-02-17T06:47:54.054Z,97.88
2023-02-17T06:48:53.959Z,97.56
2023-02-17T06:49:53.940Z,97.67
2023-02-17T06:50:53.913Z,97.88
2023-02-17T06:51:53.891Z,97.98
2023-02-17T06:52:53.891Z,97.98
2023-02-17T06:53:53.905Z,97.77
2023-02-17T06:54:53.871Z,97.77
2023-02-17T06:55:53.852Z,97.77
2023-02-17T06:56:53.852Z,97.88
2023-02-17T06:57:53.845Z,97.88
2023-02-17T06:58:53.842Z,97.67
2023-02-17T06:59:53.857Z,97.56
2023-02-17T07:00:53.827Z,97.36
2023-02-17T07:01:53.953Z,97.31
2023-02-17T07:02:53.992Z,97.21
2023-02-17T07:03:53.787Z,97.21
2023-02-17T07:04:53.776Z,97.21
2023-02-17T07:05:53.787Z,97.01
2023-02-17T07:06:53.755Z,97.01
2023-02-17T07:07:53.742Z,97.01
2023-02-17T07:08:53.747Z,97.21
2023-02-17T07:09:53.722Z,97.21
2023-02-17T07:10:53.724Z,97.11
2023-02-17T07:11:53.730Z,97.21
2023-02-17T07:12:53.695Z,97.21
2023-02-17T07:13:53.675Z,97.21
2023-02-17T07:14:53.664Z,97.21
2023-02-17T07:15:53.652Z,97.31
2023-02-17T07:16:53.641Z,97.52
2023-02-17T07:17:53.655Z,97.63
2023-02-17T07:18:53.639Z,97.52
2023-02-17T07:19:53.606Z,97.21
2023-02-17T07:20:53.626Z,97.31
2023-02-17T07:21:53.611Z,97.52
2023-02-17T07:22:53.595Z,97.42
2023-02-17T07:23:53.626Z,97.31
2023-02-17T07:24:53.570Z,97.42
2023-02-17T07:25:53.563Z,97.48
2023-02-17T07:26:53.569Z,97.63
2023-02-17T07:27:53.547Z,97.52
2023-02-17T07:28:53.533Z,97.52
2023-02-17T07:29:53.532Z,97.48
2023-02-17T07:30:53.524Z,97.27
2023-02-17T07:31:53.518Z,97.27
2023-02-17T07:32:53.491Z,97.17
2023-02-17T07:33:53.519Z,97.06
2023-02-17T07:34:53.478Z,96.96
2023-02-17T07:35:53.444Z,97.06
2023-02-17T07:36:53.449Z,97.17
2023-02-17T07:37:53.435Z,97.27
2023-02-17T07:38:53.440Z,97.38
2023-02-17T07:39:53.468Z,97.38
2023-02-17T07:40:53.406Z,97.48
2023-02-17T07:41:53.394Z,97.58
2023-02-17T07:42:53.373Z,97.58
2023-02-17T07:43:53.363Z,97.58
2023-02-17T07:44:53.362Z,97.58
2023-02-17T07:45:53.417Z,97.38
2023-02-17T07:46:53.343Z,97.48
2023-02-17T07:47:53.331Z,97.48
2023-02-17T07:48:53.338Z,97.58
2023-02-17T07:49:53.305Z,97.58
2023-02-17T07:50:53.327Z,97.58
2023-02-17T07:51:53.336Z,97.58
2023-02-17T07:52:53.265Z,97.58
2023-02-17T07:53:53.260Z,97.53
2023-02-17T07:54:53.244Z,97.23
2023-02-17T07:55:53.229Z,97.13
2023-02-17T07:56:53.255Z,96.92
2023-02-17T07:57:53.216Z,96.92
2023-02-17T07:58:53.222Z,96.92
2023-02-17T07:59:53.206Z,96.92
2023-02-17T08:00:53.202Z,97.02
2023-02-17T08:01:53.247Z,97.02
2023-02-17T08:02:53.202Z,96.92
2023-02-17T08:03:53.200Z,96.92
2023-02-17T08:04:53.149Z,96.71
2023-02-17T08:05:53.149Z,96.71
2023-02-17T08:06:53.142Z,96.61
2023-02-17T08:07:53.124Z,96.81
2023-02-17T08:08:53.120Z,96.67
2023-02-17T08:09:53.082Z,96.71
2023-02-17T08:10:53.085Z,96.56
2023-02-17T08:11:53.068Z,96.67
2023-02-17T08:12:53.095Z,96.56
2023-02-17T08:13:53.106Z,96.56
2023-02-17T08:14:53.066Z,96.36
2023-02-17T08:15:53.052Z,96.46
2023-02-17T08:16:53.109Z,96.46
2023-02-17T08:17:53.020Z,96.46
2023-02-17T08:18:52.998Z,96.36
2023-02-17T08:19:53.020Z,96.36
2023-02-17T08:20:52.998Z,96.25
2023-02-17T08:21:52.980Z,96.25
2023-02-17T08:22:52.960Z,96.25
2023-02-17T08:23:52.969Z,96.25
2023-02-17T08:24:52.988Z,96.05
2023-02-17T08:25:52.957Z,96.05
2023-02-17T08:26:52.920Z,96.21
2023-02-17T08:27:52.892Z,96.00
2023-02-17T08:28:52.896Z,95.80
2023-02-17T08:29:55.564Z,95.80
2023-02-17T08:30:53.036Z,95.59
2023-02-17T08:31:52.983Z,95.80
2023-02-17T08:32:52.871Z,95.80
2023-02-17T08:33:52.849Z,95.59
2023-02-17T08:34:52.859Z,95.49
2023-02-17T08:35:52.866Z,95.34
2023-02-17T08:36:52.826Z,95.14
2023-02-17T08:37:52.799Z,95.24
2023-02-17T08:38:52.815Z,95.34
2023-02-17T08:39:52.778Z,95.34
2023-02-17T08:40:52.764Z,94.93
2023-02-17T08:41:52.838Z,94.93
2023-02-17T08:42:52.742Z,95.14
2023-02-17T08:43:52.742Z,95.03
2023-02-17T08:44:52.754Z,94.89
2023-02-17T08:45:52.786Z,94.78
2023-02-17T08:46:52.724Z,94.68
2023-02-17T08:47:52.782Z,94.27
2023-02-17T08:48:52.727Z,94.07
2023-02-17T08:49:52.682Z,94.17
2023-02-17T08:50:52.670Z,94.07
2023-02-17T08:51:52.689Z,93.92
2023-02-17T08:52:52.675Z,93.40
2023-02-17T08:53:52.669Z,93.20
2023-02-17T08:54:52.823Z,93.20
2023-02-17T08:55:52.622Z,93.20
2023-02-17T08:56:52.621Z,92.99
2023-02-17T08:57:52.669Z,92.85
2023-02-17T08:58:52.625Z,92.74
2023-02-17T08:59:52.647Z,92.74
2023-02-17T09:00:52.569Z,92.54
2023-02-17T09:01:52.728Z,92.13
2023-02-17T09:02:52.543Z,92.03
2023-02-17T09:03:52.579Z,91.72
2023-02-17T09:04:53.180Z,91.61
2023-02-17T09:05:52.520Z,91.41
2023-02-17T09:06:52.522Z,91.27
2023-02-17T09:07:52.588Z,90.95
2023-02-17T09:08:52.500Z,90.75
2023-02-17T09:09:52.483Z,90.95
2023-02-17T09:10:52.492Z,90.55
2023-02-17T09:11:52.470Z,90.65
2023-02-17T09:12:52.448Z,90.65
2023-02-17T09:13:52.456Z,90.75
2023-02-17T09:14:52.437Z,90.55
2023-02-17T09:15:52.535Z,90.75
2023-02-17T09:16:52.473Z,90.75
2023-02-17T09:17:52.407Z,90.75
2023-02-17T09:18:52.395Z,90.85
2023-02-17T09:19:52.461Z,90.85
2023-02-17T09:20:52.388Z,90.55
2023-02-17T09:21:52.392Z,90.65
2023-02-17T09:22:52.659Z,90.75
2023-02-17T09:23:52.352Z,90.55
2023-02-17T09:24:52.359Z,90.71
2023-02-17T09:25:52.339Z,90.24
2023-02-17T09:26:52.352Z,90.34
2023-02-17T09:27:52.354Z,90.44
2023-02-17T09:28:52.335Z,90.30
2023-02-17T09:29:52.326Z,90.61
2023-02-17T09:30:52.376Z,89.89
2023-02-17T09:31:52.403Z,89.99
2023-02-17T09:32:52.305Z,90.09
2023-02-17T09:33:52.291Z,90.09
2023-02-17T09:34:52.201Z,90.20
2023-02-17T09:35:52.297Z,90.09
2023-02-17T09:36:52.224Z,89.99
2023-02-17T09:37:52.233Z,90.09
2023-02-17T09:38:52.226Z,89.99
2023-02-17T09:39:52.246Z,89.89
2023-02-17T09:40:52.236Z,89.99
2023-02-17T09:41:52.307Z,90.09
2023-02-17T09:42:52.136Z,89.89
2023-02-17T09:43:52.148Z,89.69
2023-02-17T09:44:52.193Z,89.78
2023-02-17T09:45:52.190Z,89.69
2023-02-17T09:47:01.341Z,89.78
2023-02-17T09:47:52.097Z,89.58
2023-02-17T09:48:52.079Z,89.78
2023-02-17T09:49:52.100Z,89.54
2023-02-17T09:50:52.050Z,89.54
2023-02-17T09:51:52.110Z,89.64
2023-02-17T09:52:52.085Z,89.43
2023-02-17T09:53:52.032Z,89.54
2023-02-17T09:54:52.093Z,89.64
2023-02-17T09:55:52.026Z,89.64
2023-02-17T09:56:52.016Z,89.84
2023-02-17T09:57:52.012Z,89.95
2023-02-17T09:58:52.032Z,90.16
2023-02-17T09:59:52.017Z,90.36
2023-02-17T10:00:51.954Z,90.16
2023-02-17T10:01:51.986Z,90.16
2023-02-17T10:02:52.000Z,90.46
2023-02-17T10:03:52.014Z,90.77
2023-02-17T10:04:52.042Z,91.18
2023-02-17T10:05:51.921Z,90.91
2023-02-17T10:06:51.886Z,90.97
2023-02-17T10:07:51.961Z,91.53
2023-02-17T10:08:51.923Z,91.49
2023-02-17T10:09:51.851Z,91.49
2023-02-17T10:10:51.913Z,91.42
2023-02-17T10:11:51.854Z,91.90
2023-02-17T10:12:52.128Z,91.63
2023-02-17T10:13:51.834Z,91.94
2023-02-17T10:14:51.815Z,92.04
2023-02-17T10:15:51.837Z,92.25
2023-02-17T10:16:51.852Z,92.04
2023-02-17T10:17:51.822Z,91.84
2023-02-17T10:18:51.883Z,92.04
2023-02-17T10:19:51.905Z,91.74
2023-02-17T10:20:51.842Z,91.69
2023-02-17T10:21:51.834Z,92.00
2023-02-17T10:22:51.850Z,92.00
2023-02-17T10:23:51.771Z,92.10
2023-02-17T10:24:51.759Z,92.41
2023-02-17T10:25:51.727Z,92.61
2023-02-17T10:26:51.671Z,92.41
2023-02-17T10:27:51.671Z,92.41
2023-02-17T10:28:51.639Z,92.61
2023-02-17T10:29:52.147Z,93.02
2023-02-17T10:30:51.723Z,91.90
2023-02-17T10:31:51.842Z,91.69
2023-02-17T10:32:51.724Z,91.90
2023-02-17T10:33:51.607Z,92.00
2023-02-17T10:34:51.616Z,91.75
2023-02-17T10:35:51.711Z,91.35
2023-02-17T10:36:51.569Z,91.24
2023-02-17T10:37:51.628Z,91.44
2023-02-17T10:38:51.552Z,91.44
2023-02-17T10:39:51.555Z,91.55
2023-02-17T10:40:51.528Z,90.93
2023-02-17T10:41:51.562Z,91.14
2023-02-17T10:42:51.494Z,91.14
2023-02-17T10:43:51.503Z,90.83
2023-02-17T10:44:51.570Z,90.42
2023-02-17T10:45:51.481Z,90.83
2023-02-17T10:46:51.537Z,90.93
2023-02-17T10:47:51.502Z,91.14
2023-02-17T10:48:51.451Z,90.62
2023-02-17T10:49:51.444Z,90.32
2023-02-17T10:50:51.441Z,90.01
2023-02-17T10:51:51.440Z,90.52
2023-02-17T10:52:51.415Z,90.11
2023-02-17T10:53:51.417Z,90.52
2023-02-17T10:54:51.389Z,90.52
2023-02-17T10:55:51.382Z,90.42
2023-02-17T10:56:51.375Z,90.52
2023-02-17T10:57:51.365Z,90.11
2023-02-17T10:58:51.365Z,90.22
2023-02-17T10:59:51.342Z,90.42
2023-02-17T11:00:51.411Z,90.22
2023-02-17T11:01:51.335Z,90.32
2023-02-17T11:02:51.311Z,90.32
2023-02-17T11:03:51.337Z,90.52
2023-02-17T11:04:51.307Z,90.32
2023-02-17T11:05:51.273Z,90.32
2023-02-17T11:06:51.260Z,90.32
2023-02-17T11:07:51.241Z,90.42
2023-02-17T11:08:51.245Z,90.32
2023-02-17T11:09:51.542Z,90.22
2023-02-17T11:10:51.209Z,90.32
2023-02-17T11:11:51.220Z,90.32
2023-02-17T11:12:51.202Z,90.32
2023-02-17T11:13:51.194Z,90.52
2023-02-17T11:14:51.187Z,90.42
2023-02-17T11:15:51.265Z,90.22
2023-02-17T11:16:51.156Z,90.32
2023-02-17T11:17:51.155Z,90.32
2023-02-17T11:18:51.144Z,89.97
2023-02-17T11:19:51.146Z,90.07
2023-02-17T11:20:51.136Z,90.07
2023-02-17T11:21:51.098Z,90.28
2023-02-17T11:22:51.187Z,89.97
2023-02-17T11:23:51.084Z,89.66
2023-02-17T11:24:51.083Z,89.66
2023-02-17T11:25:51.078Z,89.66
2023-02-17T11:26:51.464Z,89.56
2023-02-17T11:27:51.050Z,89.45
2023-02-17T11:28:51.028Z,89.97
2023-02-17T11:29:51.023Z,89.76
2023-02-17T11:30:51.130Z,89.45
2023-02-17T11:31:51.215Z,89.56
2023-02-17T11:32:51.001Z,89.21
2023-02-17T11:33:50.984Z,89.25
2023-02-17T11:34:50.958Z,89.00
2023-02-17T11:35:50.960Z,89.31
2023-02-17T11:36:51.011Z,89.21
2023-02-17T11:37:50.952Z,89.00
2023-02-17T11:38:50.981Z,89.11
2023-02-17T11:39:50.943Z,89.36
2023-02-17T11:40:50.922Z,89.31
2023-02-17T11:41:50.924Z,88.90
2023-02-17T11:42:50.899Z,88.70
2023-02-17T11:43:50.903Z,88.70
2023-02-17T11:44:50.908Z,88.70
2023-02-17T11:45:50.965Z,89.00
2023-02-17T11:46:50.849Z,88.90
2023-02-17T11:47:50.841Z,88.80
2023-02-17T11:48:50.823Z,89.00
2023-02-17T11:49:50.830Z,89.00
2023-02-17T11:50:50.818Z,89.00
2023-02-17T11:51:50.792Z,89.11
2023-02-17T11:52:50.792Z,88.90
2023-02-17T11:53:50.790Z,88.59
2023-02-17T11:54:50.765Z,88.49
2023-02-17T11:55:50.762Z,88.49
2023-02-17T11:56:50.776Z,88.49
2023-02-17T11:57:50.730Z,88.45
2023-02-17T11:58:50.711Z,88.24
2023-02-17T11:59:50.714Z,88.14
2023-02-17T12:00:50.701Z,88.04
2023-02-17T12:01:50.692Z,88.24
2023-02-17T12:02:50.760Z,88.04
2023-02-17T12:03:50.672Z,88.24
2023-02-17T12:04:50.720Z,87.84
2023-02-17T12:05:50.659Z,87.73
2023-02-17T12:06:50.634Z,87.53
2023-02-17T12:07:50.634Z,87.94
2023-02-17T12:08:50.629Z,87.94
2023-02-17T12:09:50.603Z,87.70
2023-02-17T12:10:50.598Z,87.43
2023-02-17T12:11:50.824Z,87.49
2023-02-17T12:12:50.564Z,87.79
2023-02-17T12:13:50.572Z,87.90
2023-02-17T12:14:50.543Z,87.59
2023-02-17T12:15:50.548Z,87.18
2023-02-17T12:16:50.598Z,87.18
2023-02-17T12:17:50.554Z,87.29
2023-02-17T12:18:50.521Z,87.59
2023-02-17T12:19:50.516Z,87.49
2023-02-17T12:20:50.508Z,86.98
2023-02-17T12:21:50.486Z,87.18
2023-02-17T12:22:50.505Z,87.38
2023-02-17T12:23:50.462Z,87.59
2023-02-17T12:24:50.443Z,87.38
2023-02-17T12:25:50.435Z,87.29
2023-02-17T12:26:50.428Z,87.49
2023-02-17T12:27:50.411Z,87.38
2023-02-17T12:28:50.455Z,87.49
2023-02-17T12:29:50.409Z,87.49
2023-02-17T12:30:50.479Z,87.59
2023-02-17T12:31:50.480Z,87.79
2023-02-17T12:32:50.365Z,87.79
2023-02-17T12:33:50.351Z,87.38
2023-02-17T12:34:50.379Z,87.49
2023-02-17T12:35:50.334Z,87.49
2023-02-17T12:36:50.320Z,87.29
2023-02-17T12:37:50.334Z,87.49
2023-02-17T12:38:50.298Z,87.29
2023-02-17T12:39:50.291Z,87.29
2023-02-17T12:40:50.424Z,87.49
2023-02-17T12:41:50.290Z,87.59
2023-02-17T12:42:50.264Z,87.59
2023-02-17T12:43:50.255Z,87.70
2023-02-17T12:44:50.253Z,87.70
2023-02-17T12:45:50.286Z,87.49
2023-02-17T12:46:50.230Z,87.49
2023-02-17T12:47:50.222Z,87.29
2023-02-17T12:48:50.196Z,87.49
2023-02-17T12:49:50.236Z,87.49
2023-02-17T12:50:50.175Z,87.49
2023-02-17T12:51:50.192Z,87.70
2023-02-17T12:52:50.174Z,87.59